sensor_id;sensor_type;location;lat;lon;timestamp;temperature;humidity
56256;DHT22;57229;51.432;-2.598;2023-02-22T00:00:52;7.40;99.90
56256;DHT22;57229;51.432;-2.598;2023-02-22T00:03:20;7.40;99.90
56256;DHT22;57229;51.432;-2.598;2023-02-22T00:05:55;7.50;99.90
56256;DHT22;57229;51.432;-2.598;2023-02-22T00:08:28;7.50;99.90
56256;DHT22;57229;51.432;-2.598;2023-02-22T00:11:06;7.50;99.90
56256;DHT22;57229;51.432;-2.598;2023-02-22T00:13:38;7.40;99.90
56256;DHT22;57229;51.432;-2.598;2023-02-22T00:16:04;7.40;99.90
56256;DHT22;57229;51.432;-2.598;2023-02-22T00:18:30;7.50;99.90
56256;DHT22;57229;51.432;-2.598;2023-02-22T00:20:58;7.40;99.90
56256;DHT22;57229;51.432;-2.598;2023-02-22T00:23:25;7.30;99.90
56256;DHT22;57229;51.432;-2.598;2023-02-22T00:25:53;7.30;99.90
56256;DHT22;57229;51.432;-2.598;2023-02-22T00:28:20;7.40;99.90
56256;DHT22;57229;51.432;-2.598;2023-02-22T00:30:49;7.40;99.90
56256;DHT22;57229;51.432;-2.598;2023-02-22T00:33:16;7.40;99.90
56256;DHT22;57229;51.432;-2.598;2023-02-22T00:35:43;7.40;99.90
56256;DHT22;57229;51.432;-2.598;2023-02-22T00:38:15;7.50;99.90
56256;DHT22;57229;51.432;-2.598;2023-02-22T00:40:41;7.50;99.90
56256;DHT22;57229;51.432;-2.598;2023-02-22T00:43:06;7.40;99.90
56256;DHT22;57229;51.432;-2.598;2023-02-22T00:45:35;7.40;99.90
56256;DHT22;57229;51.432;-2.598;2023-02-22T00:48:05;7.30;99.90
56256;DHT22;57229;51.432;-2.598;2023-02-22T00:50:32;7.30;99.90
56256;DHT22;57229;51.432;-2.598;2023-02-22T00:52:59;7.30;99.90
56256;DHT22;57229;51.432;-2.598;2023-02-22T00:55:28;7.30;99.90
56256;DHT22;57229;51.432;-2.598;2023-02-22T00:57:55;7.30;99.90
56256;DHT22;57229;51.432;-2.598;2023-02-22T01:00:23;7.30;99.90
56256;DHT22;57229;51.432;-2.598;2023-02-22T01:02:50;7.30;99.90
56256;DHT22;57229;51.432;-2.598;2023-02-22T01:05:19;7.40;99.90
56256;DHT22;57229;51.432;-2.598;2023-02-22T01:07:46;7.40;99.90
56256;DHT22;57229;51.432;-2.598;2023-02-22T01:10:12;7.40;99.90
56256;DHT22;57229;51.432;-2.598;2023-02-22T01:12:38;7.50;99.90
56256;DHT22;57229;51.432;-2.598;2023-02-22T01:15:07;7.40;99.90
56256;DHT22;57229;51.432;-2.598;2023-02-22T01:17:37;7.40;99.90
56256;DHT22;57229;51.432;-2.598;2023-02-22T01:20:08;7.40;99.90
56256;DHT22;57229;51.432;-2.598;2023-02-22T01:22:42;7.40;99.90
56256;DHT22;57229;51.432;-2.598;2023-02-22T01:25:31;7.40;99.90
56256;DHT22;57229;51.432;-2.598;2023-02-22T01:27:57;7.40;99.90
56256;DHT22;57229;51.432;-2.598;2023-02-22T01:30:26;7.40;99.90
56256;DHT22;57229;51.432;-2.598;2023-02-22T01:32:52;7.40;99.90
56256;DHT22;57229;51.432;-2.598;2023-02-22T01:35:21;7.40;99.90
56256;DHT22;57229;51.432;-2.598;2023-02-22T01:37:47;7.40;99.90
56256;DHT22;57229;51.432;-2.598;2023-02-22T01:40:20;7.40;99.90
56256;DHT22;57229;51.432;-2.598;2023-02-22T01:42:51;7.40;99.90
56256;DHT22;57229;51.432;-2.598;2023-02-22T01:50:51;7.30;99.90
56256;DHT22;57229;51.432;-2.598;2023-02-22T01:53:21;7.30;99.90
56256;DHT22;57229;51.432;-2.598;2023-02-22T01:55:47;7.30;99.90
56256;DHT22;57229;51.432;-2.598;2023-02-22T01:58:15;7.30;99.90
56256;DHT22;57229;51.432;-2.598;2023-02-22T02:00:43;7.30;99.90
56256;DHT22;57229;51.432;-2.598;2023-02-22T02:03:17;7.30;99.90
56256;DHT22;57229;51.432;-2.598;2023-02-22T02:05:44;7.30;99.90
56256;DHT22;57229;51.432;-2.598;2023-02-22T02:10:57;7.20;99.90
56256;DHT22;57229;51.432;-2.598;2023-02-22T02:13:25;7.20;99.90
56256;DHT22;57229;51.432;-2.598;2023-02-22T02:15:53;7.20;99.90
56256;DHT22;57229;51.432;-2.598;2023-02-22T02:18:20;7.20;99.90
56256;DHT22;57229;51.432;-2.598;2023-02-22T02:34:55;7.20;99.90
56256;DHT22;57229;51.432;-2.598;2023-02-22T02:37:10;7.20;99.90
56256;DHT22;57229;51.432;-2.598;2023-02-22T02:39:48;7.20;99.90
56256;DHT22;57229;51.432;-2.598;2023-02-22T02:42:19;7.20;99.90
56256;DHT22;57229;51.432;-2.598;2023-02-22T02:44:54;7.30;99.90
56256;DHT22;57229;51.432;-2.598;2023-02-22T02:47:27;7.30;99.90
56256;DHT22;57229;51.432;-2.598;2023-02-22T02:50:26;7.20;99.90
56256;DHT22;57229;51.432;-2.598;2023-02-22T02:52:55;7.20;99.90
56256;DHT22;57229;51.432;-2.598;2023-02-22T02:55:23;7.20;99.90
56256;DHT22;57229;51.432;-2.598;2023-02-22T02:57:49;7.20;99.90
56256;DHT22;57229;51.432;-2.598;2023-02-22T03:00:18;7.20;99.90
56256;DHT22;57229;51.432;-2.598;2023-02-22T03:06:00;7.20;99.90
56256;DHT22;57229;51.432;-2.598;2023-02-22T03:11:40;7.20;99.90
56256;DHT22;57229;51.432;-2.598;2023-02-22T03:14:23;7.20;99.90
56256;DHT22;57229;51.432;-2.598;2023-02-22T03:19:43;7.20;99.90
56256;DHT22;57229;51.432;-2.598;2023-02-22T03:24:56;7.20;99.90
56256;DHT22;57229;51.432;-2.598;2023-02-22T03:30:11;7.30;99.90
56256;DHT22;57229;51.432;-2.598;2023-02-22T03:32:41;7.20;99.90
56256;DHT22;57229;51.432;-2.598;2023-02-22T03:35:15;7.30;99.90
56256;DHT22;57229;51.432;-2.598;2023-02-22T03:37:49;7.30;99.90
56256;DHT22;57229;51.432;-2.598;2023-02-22T03:40:23;7.30;99.90
56256;DHT22;57229;51.432;-2.598;2023-02-22T03:42:57;7.30;99.90
56256;DHT22;57229;51.432;-2.598;2023-02-22T03:45:24;6.70;99.90
56256;DHT22;57229;51.432;-2.598;2023-02-22T03:48:02;7.40;99.90
56256;DHT22;57229;51.432;-2.598;2023-02-22T03:50:35;7.40;99.90
56256;DHT22;57229;51.432;-2.598;2023-02-22T03:53:01;7.30;99.90
56256;DHT22;57229;51.432;-2.598;2023-02-22T03:55:27;7.30;99.90
56256;DHT22;57229;51.432;-2.598;2023-02-22T03:57:59;7.30;99.90
56256;DHT22;57229;51.432;-2.598;2023-02-22T04:00:27;7.30;99.90
56256;DHT22;57229;51.432;-2.598;2023-02-22T04:02:54;7.30;99.90
56256;DHT22;57229;51.432;-2.598;2023-02-22T04:05:20;7.30;99.90
56256;DHT22;57229;51.432;-2.598;2023-02-22T04:07:46;7.30;99.90
56256;DHT22;57229;51.432;-2.598;2023-02-22T04:10:12;7.30;99.90
56256;DHT22;57229;51.432;-2.598;2023-02-22T04:12:38;7.30;99.90
56256;DHT22;57229;51.432;-2.598;2023-02-22T04:15:06;7.30;99.90
56256;DHT22;57229;51.432;-2.598;2023-02-22T04:17:32;7.30;99.90
56256;DHT22;57229;51.432;-2.598;2023-02-22T04:19:58;7.30;99.90
56256;DHT22;57229;51.432;-2.598;2023-02-22T04:22:23;7.30;99.90
56256;DHT22;57229;51.432;-2.598;2023-02-22T04:24:49;7.40;99.90
56256;DHT22;57229;51.432;-2.598;2023-02-22T04:27:15;7.30;99.90
56256;DHT22;57229;51.432;-2.598;2023-02-22T04:29:41;7.30;99.90
56256;DHT22;57229;51.432;-2.598;2023-02-22T04:32:07;7.30;99.90
56256;DHT22;57229;51.432;-2.598;2023-02-22T04:34:32;7.30;99.90
56256;DHT22;57229;51.432;-2.598;2023-02-22T04:36:58;7.30;99.90
56256;DHT22;57229;51.432;-2.598;2023-02-22T04:39:24;7.30;99.90
56256;DHT22;57229;51.432;-2.598;2023-02-22T04:41:50;7.30;99.90
56256;DHT22;57229;51.432;-2.598;2023-02-22T04:44:15;7.30;99.90
56256;DHT22;57229;51.432;-2.598;2023-02-22T04:46:41;7.30;99.90
56256;DHT22;57229;51.432;-2.598;2023-02-22T04:49:07;7.30;99.90
56256;DHT22;57229;51.432;-2.598;2023-02-22T04:51:33;7.30;99.90
56256;DHT22;57229;51.432;-2.598;2023-02-22T04:54:00;7.40;99.90
56256;DHT22;57229;51.432;-2.598;2023-02-22T04:56:26;7.30;99.90
56256;DHT22;57229;51.432;-2.598;2023-02-22T04:58:52;7.40;99.90
56256;DHT22;57229;51.432;-2.598;2023-02-22T05:01:17;7.30;99.90
56256;DHT22;57229;51.432;-2.598;2023-02-22T05:03:43;7.40;99.90
56256;DHT22;57229;51.432;-2.598;2023-02-22T05:06:09;7.30;99.90
56256;DHT22;57229;51.432;-2.598;2023-02-22T05:08:36;7.30;99.90
56256;DHT22;57229;51.432;-2.598;2023-02-22T05:11:02;7.20;99.90
56256;DHT22;57229;51.432;-2.598;2023-02-22T05:13:30;7.20;99.90
56256;DHT22;57229;51.432;-2.598;2023-02-22T05:15:55;7.20;99.90
56256;DHT22;57229;51.432;-2.598;2023-02-22T05:18:21;7.20;99.90
56256;DHT22;57229;51.432;-2.598;2023-02-22T05:20:47;7.30;99.90
56256;DHT22;57229;51.432;-2.598;2023-02-22T05:23:13;7.30;99.90
56256;DHT22;57229;51.432;-2.598;2023-02-22T05:25:38;7.40;99.90
56256;DHT22;57229;51.432;-2.598;2023-02-22T05:28:09;7.40;99.90
56256;DHT22;57229;51.432;-2.598;2023-02-22T05:30:51;7.40;99.90
56256;DHT22;57229;51.432;-2.598;2023-02-22T05:33:46;7.40;99.90
56256;DHT22;57229;51.432;-2.598;2023-02-22T05:36:14;8.40;99.90
56256;DHT22;57229;51.432;-2.598;2023-02-22T05:38:41;7.50;99.90
56256;DHT22;57229;51.432;-2.598;2023-02-22T05:41:12;7.40;99.90
56256;DHT22;57229;51.432;-2.598;2023-02-22T05:43:38;7.40;99.90
56256;DHT22;57229;51.432;-2.598;2023-02-22T05:46:04;7.30;99.90
56256;DHT22;57229;51.432;-2.598;2023-02-22T05:48:30;7.30;99.90
56256;DHT22;57229;51.432;-2.598;2023-02-22T05:50:56;7.30;99.90
56256;DHT22;57229;51.432;-2.598;2023-02-22T05:56:53;7.30;99.90
56256;DHT22;57229;51.432;-2.598;2023-02-22T05:59:32;7.40;99.90
56256;DHT22;57229;51.432;-2.598;2023-02-22T06:01:58;7.40;99.90
56256;DHT22;57229;51.432;-2.598;2023-02-22T06:07:28;7.30;99.90
56256;DHT22;57229;51.432;-2.598;2023-02-22T06:10:19;7.40;99.90
56256;DHT22;57229;51.432;-2.598;2023-02-22T06:12:46;7.30;99.90
56256;DHT22;57229;51.432;-2.598;2023-02-22T06:15:17;7.40;99.90
56256;DHT22;57229;51.432;-2.598;2023-02-22T06:17:55;7.40;99.90
56256;DHT22;57229;51.432;-2.598;2023-02-22T06:20:42;7.40;99.90
56256;DHT22;57229;51.432;-2.598;2023-02-22T06:23:07;7.40;99.90
56256;DHT22;57229;51.432;-2.598;2023-02-22T06:25:33;7.40;99.90
56256;DHT22;57229;51.432;-2.598;2023-02-22T06:28:00;7.50;99.90
56256;DHT22;57229;51.432;-2.598;2023-02-22T06:30:27;7.50;99.90
56256;DHT22;57229;51.432;-2.598;2023-02-22T06:32:53;7.40;99.90
56256;DHT22;57229;51.432;-2.598;2023-02-22T06:35:19;7.40;99.90
56256;DHT22;57229;51.432;-2.598;2023-02-22T06:37:45;7.50;99.90
56256;DHT22;57229;51.432;-2.598;2023-02-22T06:40:35;7.50;99.90
56256;DHT22;57229;51.432;-2.598;2023-02-22T06:43:01;7.50;99.90
56256;DHT22;57229;51.432;-2.598;2023-02-22T06:45:27;7.50;99.90
56256;DHT22;57229;51.432;-2.598;2023-02-22T06:51:29;7.50;99.90
56256;DHT22;57229;51.432;-2.598;2023-02-22T06:54:04;7.50;99.90
56256;DHT22;57229;51.432;-2.598;2023-02-22T06:56:30;7.60;99.90
56256;DHT22;57229;51.432;-2.598;2023-02-22T06:58:56;7.60;99.90
56256;DHT22;57229;51.432;-2.598;2023-02-22T07:01:21;7.50;99.90
56256;DHT22;57229;51.432;-2.598;2023-02-22T07:03:50;7.60;99.90
56256;DHT22;57229;51.432;-2.598;2023-02-22T07:06:16;7.60;99.90
56256;DHT22;57229;51.432;-2.598;2023-02-22T07:08:41;7.60;99.90
56256;DHT22;57229;51.432;-2.598;2023-02-22T07:11:07;7.70;99.90
56256;DHT22;57229;51.432;-2.598;2023-02-22T07:13:33;7.70;99.90
56256;DHT22;57229;51.432;-2.598;2023-02-22T07:15:59;7.70;99.90
56256;DHT22;57229;51.432;-2.598;2023-02-22T07:18:25;7.80;99.90
56256;DHT22;57229;51.432;-2.598;2023-02-22T07:20:51;7.80;99.90
56256;DHT22;57229;51.432;-2.598;2023-02-22T07:23:17;7.80;99.90
56256;DHT22;57229;51.432;-2.598;2023-02-22T07:25:42;7.80;99.90
56256;DHT22;57229;51.432;-2.598;2023-02-22T07:28:09;7.80;99.90
56256;DHT22;57229;51.432;-2.598;2023-02-22T07:30:36;7.80;99.90
56256;DHT22;57229;51.432;-2.598;2023-02-22T07:33:04;7.90;99.90
56256;DHT22;57229;51.432;-2.598;2023-02-22T07:35:32;7.90;99.90
56256;DHT22;57229;51.432;-2.598;2023-02-22T07:38:01;7.90;99.90
56256;DHT22;57229;51.432;-2.598;2023-02-22T07:40:27;7.90;99.90
56256;DHT22;57229;51.432;-2.598;2023-02-22T07:43:02;7.90;99.90
56256;DHT22;57229;51.432;-2.598;2023-02-22T07:45:33;8.00;99.90
56256;DHT22;57229;51.432;-2.598;2023-02-22T07:48:01;7.90;99.90
56256;DHT22;57229;51.432;-2.598;2023-02-22T07:50:28;8.00;99.90
56256;DHT22;57229;51.432;-2.598;2023-02-22T07:52:56;8.00;99.90
56256;DHT22;57229;51.432;-2.598;2023-02-22T07:55:25;7.90;99.90
56256;DHT22;57229;51.432;-2.598;2023-02-22T07:57:54;7.90;99.90
56256;DHT22;57229;51.432;-2.598;2023-02-22T08:00:27;8.00;99.90
56256;DHT22;57229;51.432;-2.598;2023-02-22T08:02:54;8.10;99.90
56256;DHT22;57229;51.432;-2.598;2023-02-22T08:05:21;8.10;99.90
56256;DHT22;57229;51.432;-2.598;2023-02-22T08:07:47;8.20;99.90
56256;DHT22;57229;51.432;-2.598;2023-02-22T08:10:15;8.20;99.90
56256;DHT22;57229;51.432;-2.598;2023-02-22T08:12:41;8.20;99.90
56256;DHT22;57229;51.432;-2.598;2023-02-22T08:15:13;8.30;99.90
56256;DHT22;57229;51.432;-2.598;2023-02-22T08:17:39;8.40;99.90
56256;DHT22;57229;51.432;-2.598;2023-02-22T08:20:05;8.40;99.90
56256;DHT22;57229;51.432;-2.598;2023-02-22T08:22:31;8.50;99.90
56256;DHT22;57229;51.432;-2.598;2023-02-22T08:24:57;8.50;99.90
56256;DHT22;57229;51.432;-2.598;2023-02-22T08:27:25;8.60;99.90
56256;DHT22;57229;51.432;-2.598;2023-02-22T08:29:51;8.60;99.90
56256;DHT22;57229;51.432;-2.598;2023-02-22T08:32:17;8.60;99.90
56256;DHT22;57229;51.432;-2.598;2023-02-22T08:34:43;8.60;99.90
56256;DHT22;57229;51.432;-2.598;2023-02-22T08:37:09;8.70;99.90
56256;DHT22;57229;51.432;-2.598;2023-02-22T08:39:35;8.70;99.90
56256;DHT22;57229;51.432;-2.598;2023-02-22T08:42:01;8.70;99.90
56256;DHT22;57229;51.432;-2.598;2023-02-22T08:44:27;8.80;99.90
56256;DHT22;57229;51.432;-2.598;2023-02-22T08:46:52;8.70;99.90
56256;DHT22;57229;51.432;-2.598;2023-02-22T08:49:20;8.70;99.90
56256;DHT22;57229;51.432;-2.598;2023-02-22T08:51:45;8.70;99.90
56256;DHT22;57229;51.432;-2.598;2023-02-22T08:54:12;8.70;99.90
56256;DHT22;57229;51.432;-2.598;2023-02-22T08:56:37;8.60;99.90
56256;DHT22;57229;51.432;-2.598;2023-02-22T08:59:03;8.60;99.90
56256;DHT22;57229;51.432;-2.598;2023-02-22T09:01:29;8.70;99.90
56256;DHT22;57229;51.432;-2.598;2023-02-22T09:03:55;8.70;99.90
56256;DHT22;57229;51.432;-2.598;2023-02-22T09:06:22;8.70;99.90
56256;DHT22;57229;51.432;-2.598;2023-02-22T09:08:48;8.70;99.90
56256;DHT22;57229;51.432;-2.598;2023-02-22T09:11:13;8.70;99.90
56256;DHT22;57229;51.432;-2.598;2023-02-22T09:13:39;8.60;99.90
56256;DHT22;57229;51.432;-2.598;2023-02-22T09:16:05;8.60;99.90
56256;DHT22;57229;51.432;-2.598;2023-02-22T09:18:31;8.60;99.90
56256;DHT22;57229;51.432;-2.598;2023-02-22T09:20:57;8.50;99.90
56256;DHT22;57229;51.432;-2.598;2023-02-22T09:23:26;8.60;99.90
56256;DHT22;57229;51.432;-2.598;2023-02-22T09:25:52;8.50;99.90
56256;DHT22;57229;51.432;-2.598;2023-02-22T09:28:18;8.60;99.90
56256;DHT22;57229;51.432;-2.598;2023-02-22T09:30:43;8.60;99.90
56256;DHT22;57229;51.432;-2.598;2023-02-22T09:33:13;8.60;99.90
56256;DHT22;57229;51.432;-2.598;2023-02-22T09:35:41;8.60;99.90
56256;DHT22;57229;51.432;-2.598;2023-02-22T09:38:08;8.60;99.90
56256;DHT22;57229;51.432;-2.598;2023-02-22T09:40:37;8.70;99.90
56256;DHT22;57229;51.432;-2.598;2023-02-22T09:54:32;12.70;99.90
56256;DHT22;57229;51.432;-2.598;2023-02-22T09:57:04;13.50;99.50
56256;DHT22;57229;51.432;-2.598;2023-02-22T09:59:37;14.10;96.40
56256;DHT22;57229;51.432;-2.598;2023-02-22T10:02:25;14.30;96.20
56256;DHT22;57229;51.432;-2.598;2023-02-22T10:05:10;14.60;95.60
56256;DHT22;57229;51.432;-2.598;2023-02-22T10:07:50;14.90;94.90
56256;DHT22;57229;51.432;-2.598;2023-02-22T10:10:21;14.70;94.50
56256;DHT22;57229;51.432;-2.598;2023-02-22T10:15:45;13.60;95.70
56256;DHT22;57229;51.432;-2.598;2023-02-22T10:26:25;12.00;98.30
56256;DHT22;57229;51.432;-2.598;2023-02-22T10:30:04;12.10;97.50
56256;DHT22;57229;51.432;-2.598;2023-02-22T10:32:02;11.40;98.30
56256;DHT22;57229;51.432;-2.598;2023-02-22T10:34:39;10.90;99.60
56256;DHT22;57229;51.432;-2.598;2023-02-22T10:37:24;10.40;99.90
56256;DHT22;57229;51.432;-2.598;2023-02-22T10:39:56;10.90;99.90
56256;DHT22;57229;51.432;-2.598;2023-02-22T10:42:25;11.60;99.10
56256;DHT22;57229;51.432;-2.598;2023-02-22T10:44:52;11.70;98.60
56256;DHT22;57229;51.432;-2.598;2023-02-22T10:47:19;11.40;98.60
56256;DHT22;57229;51.432;-2.598;2023-02-22T10:49:51;11.20;98.50
56256;DHT22;57229;51.432;-2.598;2023-02-22T10:54:51;10.60;98.90
56256;DHT22;57229;51.432;-2.598;2023-02-22T10:57:27;10.40;99.90
56256;DHT22;57229;51.432;-2.598;2023-02-22T10:59:53;10.40;99.90
56256;DHT22;57229;51.432;-2.598;2023-02-22T11:02:23;10.10;99.90
56256;DHT22;57229;51.432;-2.598;2023-02-22T11:04:54;10.10;99.90
56256;DHT22;57229;51.432;-2.598;2023-02-22T11:07:24;10.10;99.90
56256;DHT22;57229;51.432;-2.598;2023-02-22T11:10:05;10.10;99.90
56256;DHT22;57229;51.432;-2.598;2023-02-22T11:12:34;9.90;99.90
56256;DHT22;57229;51.432;-2.598;2023-02-22T11:17:42;9.80;99.90
56256;DHT22;57229;51.432;-2.598;2023-02-22T11:20:23;9.70;99.90
56256;DHT22;57229;51.432;-2.598;2023-02-22T11:22:57;9.60;99.90
56256;DHT22;57229;51.432;-2.598;2023-02-22T11:25:28;9.50;99.90
56256;DHT22;57229;51.432;-2.598;2023-02-22T11:27:54;9.40;99.90
56256;DHT22;57229;51.432;-2.598;2023-02-22T11:30:32;8.10;99.90
56256;DHT22;57229;51.432;-2.598;2023-02-22T11:35:59;9.40;99.90
56256;DHT22;57229;51.432;-2.598;2023-02-22T11:38:32;9.60;99.90
56256;DHT22;57229;51.432;-2.598;2023-02-22T11:43:35;9.70;99.80
56256;DHT22;57229;51.432;-2.598;2023-02-22T11:46:10;9.70;99.90
56256;DHT22;57229;51.432;-2.598;2023-02-22T11:48:38;9.70;99.20
56256;DHT22;57229;51.432;-2.598;2023-02-22T11:56:50;10.20;99.10
56256;DHT22;57229;51.432;-2.598;2023-02-22T11:59:45;10.40;98.00
56256;DHT22;57229;51.432;-2.598;2023-02-22T12:21:15;9.90;97.80
56256;DHT22;57229;51.432;-2.598;2023-02-22T12:26:36;9.90;98.00
56256;DHT22;57229;51.432;-2.598;2023-02-22T12:31:45;10.70;97.40
56256;DHT22;57229;51.432;-2.598;2023-02-22T12:39:38;13.60;91.90
56256;DHT22;57229;51.432;-2.598;2023-02-22T12:42:15;13.30;92.60
56256;DHT22;57229;51.432;-2.598;2023-02-22T12:44:46;13.10;92.40
56256;DHT22;57229;51.432;-2.598;2023-02-22T12:47:20;13.10;91.60
56256;DHT22;57229;51.432;-2.598;2023-02-22T12:49:57;13.20;92.30
56256;DHT22;57229;51.432;-2.598;2023-02-22T12:52:36;13.50;91.40
56256;DHT22;57229;51.432;-2.598;2023-02-22T12:55:43;13.40;91.50
56256;DHT22;57229;51.432;-2.598;2023-02-22T12:58:26;13.20;91.90
56256;DHT22;57229;51.432;-2.598;2023-02-22T13:01:02;13.70;91.40
56256;DHT22;57229;51.432;-2.598;2023-02-22T13:03:36;14.50;89.70
56256;DHT22;57229;51.432;-2.598;2023-02-22T13:12:03;16.10;85.60
56256;DHT22;57229;51.432;-2.598;2023-02-22T13:28:54;15.30;84.90
56256;DHT22;57229;51.432;-2.598;2023-02-22T13:41:27;14.40;86.50
56256;DHT22;57229;51.432;-2.598;2023-02-22T13:46:58;13.30;90.10
56256;DHT22;57229;51.432;-2.598;2023-02-22T13:49:58;14.10;87.50
56256;DHT22;57229;51.432;-2.598;2023-02-22T13:52:30;14.70;84.80
56256;DHT22;57229;51.432;-2.598;2023-02-22T13:55:05;14.90;85.20
56256;DHT22;57229;51.432;-2.598;2023-02-22T13:57:45;15.30;85.00
56256;DHT22;57229;51.432;-2.598;2023-02-22T14:13:13;12.50;90.60
56256;DHT22;57229;51.432;-2.598;2023-02-22T14:18:39;11.90;92.40
56256;DHT22;57229;51.432;-2.598;2023-02-22T14:21:19;11.90;92.90
56256;DHT22;57229;51.432;-2.598;2023-02-22T14:24:11;11.90;93.60
56256;DHT22;57229;51.432;-2.598;2023-02-22T14:26:38;12.20;93.00
56256;DHT22;57229;51.432;-2.598;2023-02-22T14:31:56;14.10;90.40
56256;DHT22;57229;51.432;-2.598;2023-02-22T14:37:38;16.30;83.50
56256;DHT22;57229;51.432;-2.598;2023-02-22T14:40:26;15.00;85.80
56256;DHT22;57229;51.432;-2.598;2023-02-22T14:43:08;14.20;88.80
56256;DHT22;57229;51.432;-2.598;2023-02-22T14:45:55;13.60;89.70
56256;DHT22;57229;51.432;-2.598;2023-02-22T14:48:33;12.90;90.20
56256;DHT22;57229;51.432;-2.598;2023-02-22T14:51:22;12.50;90.90
56256;DHT22;57229;51.432;-2.598;2023-02-22T14:54:02;12.20;92.00
56256;DHT22;57229;51.432;-2.598;2023-02-22T14:56:37;12.80;91.00
56256;DHT22;57229;51.432;-2.598;2023-02-22T14:59:18;14.60;87.50
56256;DHT22;57229;51.432;-2.598;2023-02-22T15:01:44;16.90;82.60
56256;DHT22;57229;51.432;-2.598;2023-02-22T15:04:26;19.00;75.50
56256;DHT22;57229;51.432;-2.598;2023-02-22T15:06:53;20.40;72.00
56256;DHT22;57229;51.432;-2.598;2023-02-22T15:09:28;21.50;67.30
56256;DHT22;57229;51.432;-2.598;2023-02-22T15:12:11;22.00;64.60
56256;DHT22;57229;51.432;-2.598;2023-02-22T15:14:38;22.60;64.80
56256;DHT22;57229;51.432;-2.598;2023-02-22T15:17:22;23.20;63.40
56256;DHT22;57229;51.432;-2.598;2023-02-22T15:19:50;23.20;61.50
56256;DHT22;57229;51.432;-2.598;2023-02-22T15:22:30;22.80;61.30
56256;DHT22;57229;51.432;-2.598;2023-02-22T15:25:05;22.30;61.60
56256;DHT22;57229;51.432;-2.598;2023-02-22T15:27:33;21.30;63.90
56256;DHT22;57229;51.432;-2.598;2023-02-22T15:30:05;19.50;66.60
56256;DHT22;57229;51.432;-2.598;2023-02-22T15:32:40;17.70;69.10
56256;DHT22;57229;51.432;-2.598;2023-02-22T15:37:45;15.20;77.10
56256;DHT22;57229;51.432;-2.598;2023-02-22T15:40:17;14.50;78.60
56256;DHT22;57229;51.432;-2.598;2023-02-22T15:42:51;14.00;80.90
56256;DHT22;57229;51.432;-2.598;2023-02-22T15:45:20;13.50;81.80
56256;DHT22;57229;51.432;-2.598;2023-02-22T15:47:51;14.00;82.70
56256;DHT22;57229;51.432;-2.598;2023-02-22T15:50:27;15.60;79.20
56256;DHT22;57229;51.432;-2.598;2023-02-22T15:52:59;15.80;76.10
56256;DHT22;57229;51.432;-2.598;2023-02-22T15:55:45;15.10;76.30
56256;DHT22;57229;51.432;-2.598;2023-02-22T16:01:10;13.30;81.40
56256;DHT22;57229;51.432;-2.598;2023-02-22T16:03:56;12.70;84.20
56256;DHT22;57229;51.432;-2.598;2023-02-22T16:06:40;12.20;86.10
56256;DHT22;57229;51.432;-2.598;2023-02-22T16:09:07;11.80;88.60
56256;DHT22;57229;51.432;-2.598;2023-02-22T16:11:37;11.50;90.00
56256;DHT22;57229;51.432;-2.598;2023-02-22T16:14:27;11.40;90.10
56256;DHT22;57229;51.432;-2.598;2023-02-22T16:17:23;11.20;90.10
56256;DHT22;57229;51.432;-2.598;2023-02-22T16:19:51;11.00;91.10
56256;DHT22;57229;51.432;-2.598;2023-02-22T16:22:27;11.00;92.10
56256;DHT22;57229;51.432;-2.598;2023-02-22T16:27:53;10.70;92.10
56256;DHT22;57229;51.432;-2.598;2023-02-22T16:30:38;10.40;92.90
56256;DHT22;57229;51.432;-2.598;2023-02-22T16:33:06;10.10;93.00
56256;DHT22;57229;51.432;-2.598;2023-02-22T16:35:39;10.10;94.50
56256;DHT22;57229;51.432;-2.598;2023-02-22T16:38:08;10.10;95.10
56256;DHT22;57229;51.432;-2.598;2023-02-22T16:40:46;10.20;96.40
56256;DHT22;57229;51.432;-2.598;2023-02-22T16:43:17;10.20;97.30
56256;DHT22;57229;51.432;-2.598;2023-02-22T16:45:43;10.20;98.20
56256;DHT22;57229;51.432;-2.598;2023-02-22T16:50:41;10.00;98.00
56256;DHT22;57229;51.432;-2.598;2023-02-22T16:53:07;9.90;99.10
56256;DHT22;57229;51.432;-2.598;2023-02-22T16:55:33;9.90;99.90
56256;DHT22;57229;51.432;-2.598;2023-02-22T16:58:02;9.90;99.90
56256;DHT22;57229;51.432;-2.598;2023-02-22T17:00:28;9.80;99.90
56256;DHT22;57229;51.432;-2.598;2023-02-22T17:02:58;9.80;99.90
56256;DHT22;57229;51.432;-2.598;2023-02-22T17:05:24;9.60;99.40
56256;DHT22;57229;51.432;-2.598;2023-02-22T17:07:50;9.40;99.90
56256;DHT22;57229;51.432;-2.598;2023-02-22T17:10:16;9.30;99.90
56256;DHT22;57229;51.432;-2.598;2023-02-22T17:12:49;9.20;99.90
56256;DHT22;57229;51.432;-2.598;2023-02-22T17:15:27;9.20;99.90
56256;DHT22;57229;51.432;-2.598;2023-02-22T17:17:54;9.20;99.90
56256;DHT22;57229;51.432;-2.598;2023-02-22T17:20:21;9.20;99.90
56256;DHT22;57229;51.432;-2.598;2023-02-22T17:22:58;9.20;99.90
56256;DHT22;57229;51.432;-2.598;2023-02-22T17:25:27;9.10;99.90
56256;DHT22;57229;51.432;-2.598;2023-02-22T17:27:54;9.00;99.90
56256;DHT22;57229;51.432;-2.598;2023-02-22T17:30:20;9.00;99.90
56256;DHT22;57229;51.432;-2.598;2023-02-22T17:32:49;9.00;99.90
56256;DHT22;57229;51.432;-2.598;2023-02-22T17:35:17;8.90;99.90
56256;DHT22;57229;51.432;-2.598;2023-02-22T17:37:47;8.60;99.90
56256;DHT22;57229;51.432;-2.598;2023-02-22T17:40:13;8.50;99.90
56256;DHT22;57229;51.432;-2.598;2023-02-22T17:42:43;8.40;99.90
56256;DHT22;57229;51.432;-2.598;2023-02-22T17:45:10;8.50;99.90
56256;DHT22;57229;51.432;-2.598;2023-02-22T17:47:41;8.40;99.90
56256;DHT22;57229;51.432;-2.598;2023-02-22T17:50:09;8.30;99.90
56256;DHT22;57229;51.432;-2.598;2023-02-22T17:52:34;8.30;99.90
56256;DHT22;57229;51.432;-2.598;2023-02-22T17:55:00;8.40;99.90
56256;DHT22;57229;51.432;-2.598;2023-02-22T17:57:26;8.40;99.90
56256;DHT22;57229;51.432;-2.598;2023-02-22T17:59:53;8.50;99.90
56256;DHT22;57229;51.432;-2.598;2023-02-22T18:02:19;8.50;99.90
56256;DHT22;57229;51.432;-2.598;2023-02-22T18:04:45;8.50;99.90
56256;DHT22;57229;51.432;-2.598;2023-02-22T18:07:11;8.40;99.90
56256;DHT22;57229;51.432;-2.598;2023-02-22T18:09:38;8.40;99.90
56256;DHT22;57229;51.432;-2.598;2023-02-22T18:12:06;8.50;99.90
56256;DHT22;57229;51.432;-2.598;2023-02-22T18:14:35;8.40;99.90
56256;DHT22;57229;51.432;-2.598;2023-02-22T18:17:32;8.40;99.90
56256;DHT22;57229;51.432;-2.598;2023-02-22T18:20:02;8.40;99.90
56256;DHT22;57229;51.432;-2.598;2023-02-22T18:22:37;8.40;99.90
56256;DHT22;57229;51.432;-2.598;2023-02-22T18:28:26;8.40;99.90
56256;DHT22;57229;51.432;-2.598;2023-02-22T18:30:52;8.30;99.90
56256;DHT22;57229;51.432;-2.598;2023-02-22T18:33:18;8.30;99.90
56256;DHT22;57229;51.432;-2.598;2023-02-22T18:35:47;8.20;99.90
56256;DHT22;57229;51.432;-2.598;2023-02-22T18:38:17;8.10;99.90
56256;DHT22;57229;51.432;-2.598;2023-02-22T18:41:01;8.10;99.90
56256;DHT22;57229;51.432;-2.598;2023-02-22T18:43:27;8.20;99.90
56256;DHT22;57229;51.432;-2.598;2023-02-22T18:45:54;8.20;99.90
56256;DHT22;57229;51.432;-2.598;2023-02-22T18:48:28;8.20;99.90
56256;DHT22;57229;51.432;-2.598;2023-02-22T18:50:57;8.20;99.90
56256;DHT22;57229;51.432;-2.598;2023-02-22T18:53:23;8.10;99.90